Time;durP1;ratioP1;P1;durP2;ratioP2;P2;SDS_P1;SDS_P2;PMS_P1;PMS_P2;Temp;Humidity;BMP_temperature;BMP_pressure;BME280_temperature;BME280_humidity;BME280_pressure;Samples;Min_cycle;Max_cycle;Signal;HPM_P1;HPM_P2
2022/01/20 00:00:18;;;;;;;3.97;2.73;;;3.90;99.90;;;;;;5054327;28;20966;-69
2022/01/20 00:02:46;;;;;;;3.87;2.87;;;3.90;99.90;;;;;;5059499;28;20453;-70
2022/01/20 00:05:45;;;;;;;;;;;;;;;;;;;;;
2022/01/20 00:08:09;;;;;;;2.90;2.47;;;4.00;99.90;;;;;;5051082;28;21053;-70
2022/01/20 00:27:11;;;;;;;3.73;3.03;;;4.00;99.90;;;;;;5038049;28;20465;-70
2022/01/20 00:33:16;;;;;;;3.93;3.00;;;4.00;99.90;;;;;;5057956;28;20449;-70
2022/01/20 00:35:19;;;;;;;4.20;3.50;;;4.00;99.90;;;;;;5040493;28;20463;-69
2022/01/20 00:37:45;;;;;;;5.50;3.47;;;4.00;99.90;;;;;;5070494;28;20975;-69
2022/01/20 00:40:11;;;;;;;5.73;3.50;;;4.00;99.90;;;;;;5042051;28;20447;-70
2022/01/20 00:42:37;;;;;;;7.33;3.90;;;4.00;99.90;;;;;;5049745;28;21031;-70
2022/01/20 00:45:04;;;;;;;3.33;3.10;;;4.00;99.90;;;;;;5014765;28;20542;-69
2022/01/20 00:47:30;;;;;;;3.27;2.93;;;4.00;99.90;;;;;;5049280;28;20307;-70
2022/01/20 00:49:55;;;;;;;5.37;3.30;;;4.00;99.90;;;;;;5049214;28;20466;-69
2022/01/20 00:52:23;;;;;;;4.70;3.43;;;4.00;99.90;;;;;;5049373;28;20226;-68
2022/01/20 00:54:49;;;;;;;5.40;3.27;;;4.10;99.90;;;;;;5055044;28;20459;-68
2022/01/20 00:57:15;;;;;;;8.30;5.03;;;4.10;99.90;;;;;;5048920;28;20450;-69
2022/01/20 00:59:41;;;;;;;5.57;3.90;;;4.10;99.90;;;;;;5050645;28;20228;-70
2022/01/20 01:02:09;;;;;;;6.57;3.90;;;4.10;99.90;;;;;;5029623;28;20546;-69
2022/01/20 01:04:36;;;;;;;4.43;3.10;;;4.10;99.90;;;;;;5048936;28;20450;-69
2022/01/20 01:09:47;;;;;;;5.23;3.33;;;4.10;99.90;;;;;;5050118;28;20450;-69
2022/01/20 01:12:21;;;;;;;6.13;4.17;;;4.10;99.90;;;;;;5043709;28;20449;-70
2022/01/20 01:14:51;;;;;;;5.47;3.43;;;4.10;99.90;;;;;;5059556;28;20481;-70
2022/01/20 01:22:30;;;;;;;5.57;3.63;;;4.10;99.90;;;;;;5048894;28;21034;-69
2022/01/20 01:24:57;;;;;;;5.83;3.40;;;4.10;99.90;;;;;;5033602;28;20450;-69
2022/01/20 01:27:24;;;;;;;5.90;4.10;;;4.10;99.90;;;;;;5035745;28;20458;-69
2022/01/20 01:30:07;;;;;;;5.77;3.57;;;4.10;99.90;;;;;;5037562;28;20508;-69
2022/01/20 01:32:47;;;;;;;;;;;;;;;;;;;;;
2022/01/20 01:35:06;;;;;;;3.60;2.70;;;4.10;99.90;;;;;;5042899;28;20497;-70
2022/01/20 01:40:04;;;;;;;5.77;3.97;;;4.10;99.90;;;;;;5048195;28;20530;-69
2022/01/20 01:42:37;;;;;;;5.67;3.37;;;4.10;99.90;;;;;;5048441;28;20743;-70
2022/01/20 01:45:25;;;;;;;4.23;3.60;;;4.10;99.90;;;;;;5047971;28;20466;-69
2022/01/20 01:47:51;;;;;;;5.10;3.73;;;4.10;99.90;;;;;;5030945;28;20516;-69
2022/01/20 01:50:21;;;;;;;5.30;3.00;;;4.10;99.90;;;;;;5040545;28;21031;-69
2022/01/20 01:52:47;;;;;;;4.87;3.23;;;4.00;99.90;;;;;;5048492;28;20454;-69
2022/01/20 01:55:13;;;;;;;3.33;2.23;;;4.10;99.90;;;;;;5047911;28;20459;-70
2022/01/20 01:57:42;;;;;;;3.47;2.50;;;4.00;99.90;;;;;;5054955;28;20487;-68
2022/01/20 02:00:10;;;;;;;3.27;2.50;;;4.00;99.90;;;;;;5051538;28;20972;-70
2022/01/20 02:02:42;;;;;;;5.57;3.70;;;4.00;99.90;;;;;;5064401;28;20538;-70
2022/01/20 02:05:15;;;;;;;10.00;3.23;;;4.00;99.90;;;;;;5047805;28;20450;-70
2022/01/20 02:18:52;;;;;;;7.47;3.70;;;4.00;99.90;;;;;;5048584;28;20457;-69
2022/01/20 02:21:56;;;;;;;3.87;2.10;;;4.00;99.90;;;;;;5035309;28;20459;-69
2022/01/20 02:24:25;;;;;;;5.40;3.87;;;4.00;99.90;;;;;;5041159;28;20450;-69
2022/01/20 02:26:51;;;;;;;8.00;3.33;;;4.00;99.90;;;;;;5051748;28;20545;-70
2022/01/20 02:29:22;;;;;;;5.23;3.20;;;4.00;99.90;;;;;;5051264;28;20219;-68
2022/01/20 02:31:57;;;;;;;4.43;2.63;;;4.00;99.90;;;;;;5043295;28;20530;-69
2022/01/20 02:34:24;;;;;;;4.83;3.40;;;4.00;99.90;;;;;;5049125;28;20502;-70
2022/01/20 02:36:50;;;;;;;5.10;3.27;;;4.00;99.90;;;;;;5042455;28;20462;-69
2022/01/20 02:39:58;;;;;;;6.70;4.00;;;3.90;99.90;;;;;;5051964;28;20442;-70
2022/01/20 02:45:04;;;;;;;4.40;3.30;;;3.90;99.90;;;;;;5050813;28;20446;-70
2022/01/20 02:47:31;;;;;;;5.10;3.63;;;3.90;99.90;;;;;;5051455;28;20462;-69
2022/01/20 02:49:57;;;;;;;4.00;2.93;;;3.90;99.90;;;;;;5052678;28;20462;-70
2022/01/20 02:52:24;;;;;;;5.67;3.43;;;3.90;99.90;;;;;;5051156;28;20534;-70
2022/01/20 02:54:50;;;;;;;3.83;3.17;;;4.00;99.90;;;;;;5058866;28;20568;-67
2022/01/20 02:57:18;;;;;;;7.90;3.50;;;3.90;99.90;;;;;;5031466;28;20499;-69
2022/01/20 02:59:44;;;;;;;4.57;3.17;;;3.90;99.90;;;;;;5051136;28;20531;-69
2022/01/20 03:02:10;;;;;;;7.17;3.23;;;3.90;99.90;;;;;;5054478;28;20475;-70
2022/01/20 03:04:37;;;;;;;4.63;3.00;;;3.90;99.90;;;;;;5054939;28;20502;-70
2022/01/20 03:07:07;;;;;;;5.37;3.40;;;3.90;99.90;;;;;;5047468;28;20523;-70
2022/01/20 03:09:33;;;;;;;5.73;3.50;;;3.90;99.90;;;;;;5043438;28;20461;-70
2022/01/20 03:12:00;;;;;;;4.47;3.03;;;3.90;99.90;;;;;;5050899;28;20454;-69
2022/01/20 03:14:25;;;;;;;10.37;3.20;;;3.90;99.90;;;;;;5034420;28;20223;-70
2022/01/20 03:16:52;;;;;;;5.60;2.80;;;3.90;99.90;;;;;;5038937;28;20451;-69
2022/01/20 03:19:18;;;;;;;5.63;2.80;;;3.90;99.90;;;;;;5061053;28;20481;-69
2022/01/20 03:21:44;;;;;;;7.90;3.30;;;3.90;99.90;;;;;;5034912;28;20212;-70
2022/01/20 03:24:11;;;;;;;3.97;2.87;;;3.90;99.90;;;;;;5045000;28;20441;-70
2022/01/20 03:26:39;;;;;;;4.00;3.30;;;3.90;99.90;;;;;;5058026;28;20455;-68
2022/01/20 03:29:07;;;;;;;5.00;2.50;;;3.90;99.90;;;;;;5050400;28;20485;-69
2022/01/20 03:31:33;;;;;;;4.43;3.07;;;3.90;99.90;;;;;;5051140;28;20474;-70
2022/01/20 03:33:59;;;;;;;3.47;2.50;;;3.90;99.90;;;;;;5049820;28;20561;-70
2022/01/20 03:36:25;;;;;;;4.30;3.33;;;3.90;99.90;;;;;;5060599;28;20469;-70
2022/01/20 03:39:03;;;;;;;5.90;2.23;;;3.90;99.90;;;;;;5055290;28;20958;-69
2022/01/20 03:41:29;;;;;;;5.07;2.50;;;3.90;99.90;;;;;;5066651;28;20462;-69
2022/01/20 03:43:57;;;;;;;4.33;2.47;;;3.90;99.90;;;;;;5066943;28;20534;-70
2022/01/20 03:46:23;;;;;;;6.40;2.43;;;3.90;99.90;;;;;;5050347;28;20459;-70
2022/01/20 03:48:51;;;;;;;3.10;2.37;;;3.90;99.90;;;;;;5050168;28;20813;-68
2022/01/20 03:51:21;;;;;;;3.93;2.53;;;3.90;99.90;;;;;;5050737;28;20462;-69
2022/01/20 03:53:52;;;;;;;4.00;2.40;;;4.00;99.90;;;;;;5067065;28;20451;-70
2022/01/20 03:56:22;;;;;;;5.67;2.30;;;4.00;99.90;;;;;;5049836;28;20828;-69
2022/01/20 03:59:10;;;;;;;7.60;2.23;;;3.90;99.90;;;;;;5041297;28;20453;-69
2022/01/20 04:01:36;;;;;;;4.50;2.47;;;3.90;99.90;;;;;;5044920;28;20548;-69
2022/01/20 04:04:21;;;;;;;4.03;2.20;;;4.00;99.90;;;;;;5067185;28;20696;-69
2022/01/20 04:07:03;;;;;;;3.90;2.30;;;4.00;99.90;;;;;;5049755;28;20454;-69
2022/01/20 04:09:29;;;;;;;4.93;3.13;;;4.00;99.90;;;;;;5050395;28;20450;-70
2022/01/20 04:11:55;;;;;;;4.73;2.37;;;3.90;99.90;;;;;;5032629;28;20462;-70
2022/01/20 04:14:23;;;;;;;7.13;2.80;;;3.90;99.90;;;;;;5046051;28;20222;-69
2022/01/20 04:19:22;;;;;;;7.10;3.40;;;3.90;99.90;;;;;;5045888;28;20447;-69
2022/01/20 04:21:48;;;;;;;6.50;2.47;;;3.90;99.90;;;;;;5037883;28;20460;-68
2022/01/20 04:24:14;;;;;;;7.93;2.67;;;3.80;99.90;;;;;;5037738;28;20522;-70
2022/01/20 04:26:43;;;;;;;4.50;2.70;;;3.80;99.90;;;;;;5045271;28;20758;-69
2022/01/20 04:29:11;;;;;;;3.57;2.63;;;3.80;99.90;;;;;;5058985;28;20442;-69
2022/01/20 04:31:39;;;;;;;4.47;2.80;;;3.80;99.90;;;;;;5064356;28;20952;-69
2022/01/20 04:34:06;;;;;;;9.53;2.83;;;3.80;99.90;;;;;;5031928;28;20470;-69
2022/01/20 04:36:36;;;;;;;5.20;3.17;;;3.70;99.90;;;;;;5048735;28;20994;-69
2022/01/20 04:39:10;;;;;;;8.90;3.13;;;3.70;99.90;;;;;;5032001;28;20467;-69
2022/01/20 04:41:36;;;;;;;4.00;2.93;;;3.60;99.90;;;;;;5029595;28;20461;-70
2022/01/20 04:44:08;;;;;;;3.93;2.87;;;3.60;99.90;;;;;;5029233;28;20513;-68
2022/01/20 04:47:03;;;;;;;9.80;3.30;;;3.60;99.90;;;;;;5028715;28;20463;-69
2022/01/20 04:57:33;;;;;;;5.07;2.30;;;3.40;99.90;;;;;;5069244;28;20831;-69
2022/01/20 04:59:59;;;;;;;2.90;1.87;;;3.30;99.90;;;;;;5053812;28;20445;-69
2022/01/20 05:02:27;;;;;;;8.27;3.27;;;3.30;99.90;;;;;;5062276;28;20445;-69
2022/01/20 05:04:57;;;;;;;4.17;2.47;;;3.20;99.90;;;;;;5042441;28;20216;-69
2022/01/20 05:07:49;;;;;;;4.67;2.60;;;3.20;99.90;;;;;;5042420;28;20465;-69
2022/01/20 05:10:15;;;;;;;5.33;2.50;;;3.20;99.90;;;;;;5032854;28;20496;-69
2022/01/20 05:13:04;;;;;;;;;;;;;;;;;;;;;
2022/01/20 05:15:15;;;;;;;3.97;2.20;;;3.10;99.90;;;;;;5048621;28;20461;-69
2022/01/20 05:17:41;;;;;;;6.70;2.20;;;3.10;99.90;;;;;;5048795;28;20450;-69
2022/01/20 05:20:07;;;;;;;2.30;2.10;;;3.10;99.90;;;;;;5035671;28;20447;-69
2022/01/20 05:22:33;;;;;;;3.23;2.00;;;3.10;99.90;;;;;;5050214;28;20446;-69
2022/01/20 05:25:00;;;;;;;3.93;1.97;;;3.10;99.90;;;;;;5051634;28;20477;-68
2022/01/20 05:27:26;;;;;;;3.60;2.17;;;3.10;99.90;;;;;;5052058;28;20484;-70
2022/01/20 05:29:52;;;;;;;3.33;1.40;;;3.10;99.90;;;;;;5067855;28;20644;-68
2022/01/20 05:32:19;;;;;;;2.63;1.50;;;3.10;99.90;;;;;;5052135;28;20475;-68
2022/01/20 05:34:45;;;;;;;4.47;2.20;;;3.10;99.90;;;;;;5049512;28;20493;-70
2022/01/20 05:37:11;;;;;;;3.17;2.30;;;3.10;99.90;;;;;;5031020;28;20476;-69
2022/01/20 05:39:36;;;;;;;5.03;1.37;;;3.00;99.90;;;;;;5044126;28;20217;-69
2022/01/20 05:42:02;;;;;;;3.53;1.67;;;3.00;99.90;;;;;;5058060;28;20238;-69
2022/01/20 05:44:52;;;;;;;4.63;2.00;;;3.00;99.90;;;;;;5056099;28;20661;-68
2022/01/20 05:47:26;;;;;;;7.43;1.77;;;3.00;99.90;;;;;;5031591;28;20450;-68
2022/01/20 05:50:07;;;;;;;2.77;1.53;;;3.00;99.90;;;;;;5049251;28;20982;-70
2022/01/20 05:52:36;;;;;;;7.93;1.83;;;3.00;99.90;;;;;;5031542;28;20454;-70
2022/01/20 05:55:02;;;;;;;9.03;1.93;;;3.00;99.90;;;;;;5031395;28;20497;-69
2022/01/20 05:57:28;;;;;;;3.23;1.73;;;2.90;99.90;;;;;;5066402;28;20453;-71
2022/01/20 05:59:53;;;;;;;2.57;1.03;;;2.90;99.90;;;;;;5053434;28;20451;-69
2022/01/20 06:02:33;;;;;;;5.53;1.73;;;2.90;99.90;;;;;;5069962;28;20238;-69
2022/01/20 06:04:59;;;;;;;3.70;1.20;;;3.00;99.90;;;;;;5051741;28;20450;-70
2022/01/20 06:07:26;;;;;;;4.53;1.90;;;3.00;99.90;;;;;;5040971;28;20457;-68
2022/01/20 06:09:52;;;;;;;1.83;1.57;;;3.00;99.90;;;;;;5071558;28;20404;-70
2022/01/20 06:12:18;;;;;;;5.03;2.23;;;2.90;99.90;;;;;;5063823;28;20487;-68
2022/01/20 06:14:43;;;;;;;3.90;1.33;;;2.90;99.90;;;;;;5051925;28;20274;-69
2022/01/20 06:17:09;;;;;;;4.87;1.60;;;2.90;99.90;;;;;;5051501;28;20215;-70
2022/01/20 06:19:35;;;;;;;7.83;1.43;;;2.90;99.90;;;;;;5052455;28;20262;-69
2022/01/20 06:22:01;;;;;;;5.67;1.67;;;2.90;99.90;;;;;;5051722;28;20224;-69
2022/01/20 06:24:26;;;;;;;2.80;1.60;;;2.90;99.90;;;;;;5068558;28;20216;-69
2022/01/20 06:26:52;;;;;;;13.63;2.20;;;2.90;99.90;;;;;;5051736;28;20219;-69
2022/01/20 06:29:18;;;;;;;2.30;1.37;;;2.90;99.90;;;;;;5058492;28;20208;-69
2022/01/20 06:31:44;;;;;;;3.53;1.53;;;2.90;99.90;;;;;;5052141;28;20567;-69
2022/01/20 06:34:10;;;;;;;2.17;1.80;;;2.90;99.90;;;;;;5065715;28;20303;-69
2022/01/20 06:36:36;;;;;;;10.70;1.97;;;2.80;99.90;;;;;;5053477;28;20522;-68
2022/01/20 06:39:03;;;;;;;2.93;1.90;;;2.80;99.90;;;;;;5047867;28;20449;-69
2022/01/20 06:41:33;;;;;;;2.50;1.97;;;2.90;99.90;;;;;;5052069;28;20557;-71
2022/01/20 06:43:59;;;;;;;2.90;1.70;;;2.90;99.90;;;;;;5056508;28;20465;-69
2022/01/20 06:46:25;;;;;;;10.07;1.70;;;2.90;99.90;;;;;;5043906;28;20458;-70
2022/01/20 06:48:59;;;;;;;1.53;1.43;;;2.90;99.90;;;;;;5033964;28;20757;-70
2022/01/20 06:51:30;;;;;;;1.57;1.03;;;2.90;99.90;;;;;;5049517;28;21042;-70
2022/01/20 06:53:56;;;;;;;5.53;1.27;;;2.90;99.90;;;;;;5047520;28;20461;-70
2022/01/20 06:56:22;;;;;;;10.13;1.63;;;2.90;99.90;;;;;;5044978;28;20462;-70
2022/01/20 06:58:48;;;;;;;5.73;1.90;;;2.90;99.90;;;;;;5036598;28;20219;-70
2022/01/20 07:01:16;;;;;;;2.97;1.80;;;2.90;99.90;;;;;;5064184;28;20570;-70
2022/01/20 07:03:43;;;;;;;6.30;1.90;;;2.90;99.90;;;;;;5057791;28;20886;-70
2022/01/20 07:06:09;;;;;;;2.30;1.47;;;2.80;99.90;;;;;;5060309;28;20461;-70
2022/01/20 07:08:54;;;;;;;1.83;1.30;;;2.80;99.90;;;;;;5056986;28;20223;-70
2022/01/20 07:11:20;;;;;;;2.40;1.60;;;2.80;99.90;;;;;;5049133;28;20477;-69
2022/01/20 07:13:46;;;;;;;1.13;1.13;;;2.80;99.90;;;;;;5033011;28;20836;-70
2022/01/20 07:16:12;;;;;;;5.23;1.30;;;2.90;99.90;;;;;;5053207;28;20224;-70
2022/01/20 07:18:37;;;;;;;2.57;1.80;;;2.90;99.90;;;;;;5049684;28;20278;-69
2022/01/20 07:21:03;;;;;;;1.20;0.97;;;2.90;99.90;;;;;;5049442;28;20227;-69
2022/01/20 07:23:39;;;;;;;2.80;1.63;;;2.90;99.90;;;;;;5033246;28;20219;-69
2022/01/20 07:26:08;;;;;;;1.43;1.33;;;2.90;99.90;;;;;;5048661;28;20568;-69
2022/01/20 07:28:40;;;;;;;11.23;2.00;;;2.90;99.90;;;;;;5037541;28;20442;-70
2022/01/20 07:31:07;;;;;;;4.60;1.70;;;2.90;99.90;;;;;;5023538;28;20505;-70
2022/01/20 07:33:33;;;;;;;8.53;2.60;;;2.80;99.90;;;;;;5034825;28;20605;-70
2022/01/20 07:35:59;;;;;;;2.37;1.60;;;2.90;99.90;;;;;;5034729;28;20562;-70
2022/01/20 07:38:25;;;;;;;6.70;1.93;;;2.80;99.90;;;;;;5046724;28;20222;-70
2022/01/20 07:40:54;;;;;;;5.13;1.80;;;2.90;99.90;;;;;;5042103;28;20538;-69
2022/01/20 07:43:19;;;;;;;2.40;1.53;;;2.90;99.90;;;;;;5048968;28;20526;-69
2022/01/20 07:45:52;;;;;;;6.30;2.10;;;2.90;99.90;;;;;;5031448;28;20216;-70
2022/01/20 07:48:31;;;;;;;1.60;1.50;;;2.90;99.90;;;;;;5064785;28;20612;-70
2022/01/20 07:51:02;;;;;;;2.00;1.30;;;2.90;99.90;;;;;;5065527;28;20477;-69
2022/01/20 07:53:34;;;;;;;7.30;1.43;;;3.00;99.90;;;;;;5031033;28;20516;-68
2022/01/20 07:56:01;;;;;;;4.90;1.93;;;3.00;99.90;;;;;;5030711;28;21066;-69
2022/01/20 07:58:26;;;;;;;6.73;1.83;;;3.00;99.90;;;;;;5031501;28;20500;-70
2022/01/20 08:00:52;;;;;;;2.13;1.40;;;3.00;99.90;;;;;;5033075;28;20455;-69
2022/01/20 08:03:18;;;;;;;1.20;1.00;;;3.10;99.90;;;;;;5047485;28;20222;-68
2022/01/20 08:05:56;;;;;;;5.97;1.37;;;3.10;99.90;;;;;;5045959;28;20365;-70
2022/01/20 08:08:28;;;;;;;1.43;1.33;;;3.10;99.90;;;;;;5048700;28;21006;-70
2022/01/20 08:11:26;;;;;;;2.13;0.80;;;3.10;99.90;;;;;;5020360;28;20442;-71
2022/01/20 08:14:00;;;;;;;2.07;1.50;;;3.20;99.90;;;;;;5046943;28;20474;-70
2022/01/20 08:16:25;;;;;;;4.40;1.70;;;3.20;99.90;;;;;;5048118;28;20493;-69
2022/01/20 08:18:53;;;;;;;7.83;1.70;;;3.20;99.90;;;;;;5048058;28;20573;-70
2022/01/20 08:21:19;;;;;;;3.80;1.70;;;3.20;99.90;;;;;;5029461;28;20235;-69
2022/01/20 08:23:45;;;;;;;3.80;1.20;;;3.20;99.90;;;;;;5045124;28;20896;-70
2022/01/20 08:26:11;;;;;;;2.80;1.63;;;3.30;99.90;;;;;;5033552;28;20462;-70
2022/01/20 08:28:36;;;;;;;1.63;1.37;;;3.30;99.90;;;;;;5046918;28;20220;-70
2022/01/20 08:31:02;;;;;;;7.30;1.43;;;3.30;99.90;;;;;;5029397;28;20219;-69
2022/01/20 08:33:28;;;;;;;5.70;1.47;;;3.30;99.90;;;;;;5048203;28;20224;-69
2022/01/20 08:36:03;;;;;;;1.50;1.40;;;3.30;99.90;;;;;;5053777;28;20878;-69
2022/01/20 08:38:43;;;;;;;1.97;1.50;;;3.30;99.90;;;;;;5036189;28;20454;-69
2022/01/20 08:41:09;;;;;;;3.93;2.60;;;3.30;99.90;;;;;;5061483;28;20521;-71
2022/01/20 08:43:38;;;;;;;4.90;1.90;;;3.30;99.90;;;;;;5041369;28;20212;-68
2022/01/20 08:46:07;;;;;;;3.27;1.20;;;3.30;99.90;;;;;;5029448;28;20228;-70
2022/01/20 08:48:36;;;;;;;6.60;1.57;;;3.40;99.90;;;;;;5046595;28;20459;-70
2022/01/20 08:51:03;;;;;;;3.40;2.00;;;3.40;99.90;;;;;;5062725;28;20875;-70
2022/01/20 08:53:34;;;;;;;3.50;1.87;;;3.40;99.90;;;;;;5062636;28;20454;-69
2022/01/20 08:56:01;;;;;;;1.40;1.30;;;3.50;99.90;;;;;;5061694;28;20524;-70
2022/01/20 08:58:27;;;;;;;1.37;1.30;;;3.50;99.90;;;;;;5038151;28;20458;-70
2022/01/20 09:00:53;;;;;;;9.80;2.27;;;3.50;99.90;;;;;;5052517;28;20573;-70
2022/01/20 09:03:22;;;;;;;3.93;1.93;;;3.60;99.90;;;;;;5045244;28;20243;-68
2022/01/20 09:05:48;;;;;;;2.90;1.23;;;3.60;99.90;;;;;;5044397;28;20500;-68
2022/01/20 09:08:17;;;;;;;1.30;1.10;;;3.60;99.90;;;;;;5044550;28;21019;-69
2022/01/20 09:10:55;;;;;;;6.97;1.67;;;3.60;99.90;;;;;;5038164;28;20860;-70
2022/01/20 09:16:08;;;;;;;1.03;1.03;;;3.60;99.90;;;;;;5046216;28;20466;-69
2022/01/20 09:18:47;;;;;;;1.77;0.70;;;3.70;99.90;;;;;;5041000;28;20546;-69
2022/01/20 09:21:20;;;;;;;3.23;1.80;;;3.70;99.90;;;;;;5047728;28;20526;-69
2022/01/20 09:23:47;;;;;;;1.93;1.57;;;3.70;99.90;;;;;;5062117;28;20492;-70
2022/01/20 09:26:13;;;;;;;1.83;1.53;;;3.80;99.90;;;;;;5046873;28;20443;-69
2022/01/20 09:28:42;;;;;;;1.50;1.30;;;3.80;99.90;;;;;;5031525;28;20227;-69
2022/01/20 09:31:09;;;;;;;4.73;1.50;;;3.80;99.90;;;;;;5047286;28;20893;-70
2022/01/20 09:33:35;;;;;;;1.73;1.50;;;3.80;99.90;;;;;;5050344;28;20462;-68
2022/01/20 09:36:07;;;;;;;4.57;1.50;;;3.80;99.90;;;;;;5027664;28;21040;-70
2022/01/20 09:38:34;;;;;;;2.27;1.83;;;3.80;99.90;;;;;;5027007;28;20528;-70
2022/01/20 09:41:01;;;;;;;4.50;1.87;;;3.90;99.90;;;;;;5047037;28;20968;-70
2022/01/20 09:43:27;;;;;;;2.90;2.37;;;3.90;99.90;;;;;;5053887;28;20230;-70
2022/01/20 09:45:55;;;;;;;4.67;2.40;;;3.90;99.90;;;;;;5053726;28;20445;-70
2022/01/20 09:48:24;;;;;;;4.00;2.10;;;3.90;99.90;;;;;;5054251;28;20456;-70
2022/01/20 09:51:11;;;;;;;2.67;2.30;;;3.90;99.90;;;;;;5041101;28;20537;-71
2022/01/20 09:54:06;;;;;;;2.80;2.27;;;3.90;99.90;;;;;;5039784;28;20561;-70
2022/01/20 09:57:05;;;;;;;4.70;2.40;;;4.00;99.90;;;;;;5052880;28;20553;-69
2022/01/20 09:59:31;;;;;;;5.43;2.80;;;4.00;99.90;;;;;;5049967;28;20449;-69
2022/01/20 10:01:58;;;;;;;5.40;3.10;;;4.10;99.90;;;;;;5050332;28;20459;-70
2022/01/20 10:04:26;;;;;;;4.67;3.70;;;4.10;99.90;;;;;;5051990;28;20511;-70
2022/01/20 10:07:06;;;;;;;5.33;2.90;;;4.10;99.90;;;;;;5043450;28;20458;-69
2022/01/20 10:09:37;;;;;;;7.90;2.63;;;4.10;99.90;;;;;;5052153;28;20223;-70
2022/01/20 10:12:28;;;;;;;2.37;2.17;;;4.20;99.90;;;;;;5044795;28;20473;-69
2022/01/20 10:15:12;;;;;;;5.00;2.27;;;4.20;99.90;;;;;;5043615;28;20516;-70
2022/01/20 10:17:45;;;;;;;5.43;2.70;;;4.20;99.90;;;;;;5044927;28;20496;-68
2022/01/20 10:20:14;;;;;;;10.33;4.77;;;4.20;99.90;;;;;;5040574;28;20470;-70
2022/01/20 10:22:56;;;;;;;9.30;4.87;;;4.30;99.90;;;;;;5049289;28;20469;-67
2022/01/20 10:25:44;;;;;;;11.53;5.47;;;4.40;99.90;;;;;;5052276;28;20451;-70
2022/01/20 10:28:24;;;;;;;7.93;4.90;;;4.40;99.90;;;;;;5041072;28;20476;-70
2022/01/20 10:30:55;;;;;;;9.63;3.23;;;4.40;99.90;;;;;;5047869;28;20536;-70
2022/01/20 10:33:21;;;;;;;2.87;2.57;;;4.40;99.90;;;;;;5026610;28;20451;-69
2022/01/20 10:35:47;;;;;;;4.23;2.27;;;4.50;99.90;;;;;;5043151;28;20470;-70
2022/01/20 10:38:20;;;;;;;2.97;1.97;;;4.50;99.90;;;;;;5044102;28;20211;-70
2022/01/20 10:40:56;;;;;;;3.83;1.90;;;4.50;99.90;;;;;;5039865;28;20505;-70
2022/01/20 10:43:27;;;;;;;5.20;2.20;;;4.50;99.90;;;;;;5044616;28;20548;-69
2022/01/20 10:46:08;;;;;;;2.50;1.80;;;4.50;99.90;;;;;;5055362;28;20451;-69
2022/01/20 10:48:34;;;;;;;3.97;2.00;;;4.50;99.90;;;;;;5048333;28;20563;-70
2022/01/20 10:51:02;;;;;;;10.97;2.57;;;4.60;99.90;;;;;;5031839;28;20454;-71
2022/01/20 10:53:30;;;;;;;3.23;2.10;;;4.60;99.90;;;;;;5030385;28;20513;-68
2022/01/20 10:56:05;;;;;;;5.43;2.57;;;4.60;99.90;;;;;;5035754;28;20908;-70
2022/01/20 10:58:32;;;;;;;3.63;2.00;;;4.60;99.90;;;;;;5040482;28;20461;-70
2022/01/20 11:01:00;;;;;;;3.50;1.80;;;4.70;99.90;;;;;;5044915;28;20474;-70
2022/01/20 11:03:30;;;;;;;5.20;1.97;;;4.70;99.90;;;;;;5040519;28;20450;-68
2022/01/20 11:05:58;;;;;;;5.03;1.63;;;4.80;99.90;;;;;;5024199;28;20485;-70
2022/01/20 11:08:31;;;;;;;3.70;1.80;;;4.70;99.90;;;;;;5022362;28;20453;-70
2022/01/20 11:10:59;;;;;;;6.17;2.10;;;4.70;99.90;;;;;;5049877;28;20455;-70
2022/01/20 11:13:37;;;;;;;2.90;2.03;;;4.70;99.90;;;;;;5042975;28;20447;-68
2022/01/20 11:16:03;;;;;;;5.63;2.30;;;4.70;99.90;;;;;;5027493;28;20467;-70
2022/01/20 11:18:29;;;;;;;5.33;2.53;;;4.70;99.90;;;;;;5027770;28;20449;-70
2022/01/20 11:20:56;;;;;;;4.33;2.00;;;4.70;99.90;;;;;;5012367;28;20244;-69
2022/01/20 11:23:40;;;;;;;4.57;2.40;;;4.80;99.90;;;;;;5021757;28;20466;-69
2022/01/20 11:26:24;;;;;;;5.03;2.10;;;4.80;99.90;;;;;;5045817;28;20454;-70
2022/01/20 11:29:38;;;;;;;2.23;2.03;;;4.70;99.90;;;;;;5053805;28;20470;-70
2022/01/20 11:32:34;;;;;;;3.03;1.40;;;4.70;99.90;;;;;;5048876;28;20465;-71
2022/01/20 11:35:14;;;;;;;1.57;1.43;;;4.70;99.90;;;;;;5023952;28;20486;-69
2022/01/20 11:37:41;;;;;;;4.73;2.37;;;4.80;99.90;;;;;;5035193;28;20485;-70
2022/01/20 11:40:19;;;;;;;2.33;1.70;;;4.70;99.90;;;;;;5056802;28;20449;-70
2022/01/20 11:43:11;;;;;;;42.67;17.93;;;4.80;99.90;;;;;;5057543;28;20454;-71
2022/01/20 11:45:51;;;;;;;18.70;8.87;;;4.90;99.90;;;;;;5045856;28;20450;-71
2022/01/20 11:48:21;;;;;;;3.73;2.43;;;4.90;99.90;;;;;;5048283;28;20500;-69
2022/01/20 11:51:00;;;;;;;2.57;2.37;;;4.90;99.90;;;;;;5047349;28;20465;-70
2022/01/20 11:53:25;;;;;;;3.90;2.63;;;4.90;99.90;;;;;;5044456;28;20492;-69
2022/01/20 11:55:53;;;;;;;7.03;2.80;;;5.00;99.90;;;;;;5050747;28;20474;-70
2022/01/20 11:58:22;;;;;;;4.37;2.40;;;5.00;99.90;;;;;;5053770;28;20227;-68
2022/01/20 12:01:04;;;;;;;3.70;2.00;;;5.00;99.90;;;;;;5056645;28;20454;-69
2022/01/20 12:03:31;;;;;;;4.80;2.17;;;4.90;99.90;;;;;;5054677;28;20467;-70
2022/01/20 12:06:13;;;;;;;2.33;2.13;;;4.90;99.90;;;;;;5063614;28;20890;-69
2022/01/20 12:09:01;;;;;;;5.97;2.30;;;5.00;99.90;;;;;;5048337;28;20829;-70
2022/01/20 12:11:39;;;;;;;5.70;2.70;;;5.00;99.90;;;;;;5043951;28;20455;-68
2022/01/20 12:14:06;;;;;;;4.20;2.30;;;5.10;99.90;;;;;;5047919;28;20477;-70
2022/01/20 12:16:33;;;;;;;3.97;2.20;;;5.10;99.90;;;;;;5048133;28;20573;-68
2022/01/20 12:19:00;;;;;;;4.60;1.90;;;5.00;99.90;;;;;;5051035;28;20451;-68
2022/01/20 12:21:27;;;;;;;4.60;2.87;;;5.00;99.90;;;;;;5054036;28;20504;-70
2022/01/20 12:23:54;;;;;;;3.37;2.53;;;4.90;99.90;;;;;;5051074;28;20541;-67
2022/01/20 12:26:20;;;;;;;6.13;2.40;;;4.90;99.90;;;;;;5041563;28;20525;-68
2022/01/20 12:28:47;;;;;;;3.50;2.57;;;4.90;99.90;;;;;;5041000;28;20462;-68
2022/01/20 12:31:13;;;;;;;4.43;2.37;;;5.00;99.90;;;;;;5038305;28;20451;-70
2022/01/20 12:33:44;;;;;;;2.30;2.07;;;5.00;99.90;;;;;;5036300;28;20512;-70
2022/01/20 12:36:16;;;;;;;6.33;3.27;;;5.00;99.90;;;;;;5046168;28;20573;-70
2022/01/20 12:38:44;;;;;;;13.40;5.60;;;5.00;99.90;;;;;;5044818;28;20498;-70
2022/01/20 12:41:12;;;;;;;9.10;4.33;;;5.00;99.90;;;;;;5024376;28;20459;-69
2022/01/20 12:43:58;;;;;;;4.77;1.93;;;5.00;99.90;;;;;;5044364;28;20458;-68
2022/01/20 12:46:26;;;;;;;5.80;1.60;;;5.00;99.90;;;;;;5049277;28;20461;-69
2022/01/20 12:48:58;;;;;;;3.03;1.80;;;5.00;99.90;;;;;;5061635;28;20531;-69
2022/01/20 12:51:36;;;;;;;2.63;1.30;;;4.90;99.90;;;;;;5048467;28;21027;-68
2022/01/20 12:54:28;;;;;;;1.97;1.40;;;4.90;99.90;;;;;;5035991;28;20461;-70
2022/01/20 12:56:57;;;;;;;2.60;1.43;;;4.80;99.90;;;;;;5055426;28;20465;-71
2022/01/20 12:59:26;;;;;;;7.10;1.67;;;4.80;99.90;;;;;;5065726;28;20462;-70
2022/01/20 13:01:54;;;;;;;1.50;1.10;;;4.80;99.90;;;;;;5080659;28;20471;-69
2022/01/20 13:04:24;;;;;;;3.70;1.03;;;4.80;99.90;;;;;;5064572;28;20449;-71
2022/01/20 13:06:55;;;;;;;1.47;1.37;;;4.70;99.90;;;;;;5047681;28;20469;-69
2022/01/20 13:09:24;;;;;;;1.90;1.40;;;4.70;99.90;;;;;;5046983;28;20504;-70
2022/01/20 13:11:55;;;;;;;5.57;1.73;;;4.80;99.90;;;;;;5049925;28;20453;-69
2022/01/20 13:14:35;;;;;;;9.10;1.67;;;4.80;99.90;;;;;;5063199;28;20457;-70
2022/01/20 13:17:02;;;;;;;2.60;1.87;;;4.80;99.90;;;;;;5047652;28;20525;-70
2022/01/20 13:19:38;;;;;;;2.83;1.43;;;4.80;99.90;;;;;;5050107;28;20445;-71
2022/01/20 13:22:07;;;;;;;5.20;1.50;;;4.80;99.90;;;;;;5062593;28;20445;-69
2022/01/20 13:24:35;;;;;;;1.80;1.27;;;4.80;99.90;;;;;;5061499;28;20441;-70
2022/01/20 13:27:02;;;;;;;1.30;1.20;;;4.80;99.90;;;;;;5043320;28;20449;-71
2022/01/20 13:29:43;;;;;;;1.77;1.30;;;4.80;99.90;;;;;;5043243;28;20434;-70
2022/01/20 13:32:09;;;;;;;1.20;1.10;;;4.80;99.90;;;;;;5059013;28;20450;-70
2022/01/20 13:34:35;;;;;;;1.27;1.03;;;4.90;99.90;;;;;;5061273;28;20454;-70
2022/01/20 13:37:02;;;;;;;1.67;1.57;;;4.90;99.90;;;;;;5064801;28;20484;-70
2022/01/20 13:39:34;;;;;;;4.50;1.20;;;4.80;99.90;;;;;;5057950;28;20492;-70
2022/01/20 13:42:38;;;;;;;1.40;1.30;;;4.80;99.90;;;;;;5061404;28;20443;-70
2022/01/20 13:45:15;;;;;;;1.13;1.10;;;4.90;99.90;;;;;;5037411;28;20467;-70
2022/01/20 13:47:47;;;;;;;2.70;1.17;;;4.90;99.90;;;;;;5051196;28;20549;-69
2022/01/20 13:50:28;;;;;;;3.90;1.43;;;4.90;99.90;;;;;;5057894;28;20458;-71
2022/01/20 13:52:55;;;;;;;6.50;1.80;;;4.90;99.90;;;;;;5065348;28;20544;-68
2022/01/20 13:55:28;;;;;;;2.50;1.30;;;4.90;99.90;;;;;;5049409;28;20550;-71
2022/01/20 13:57:55;;;;;;;5.57;1.00;;;4.90;99.90;;;;;;5038302;28;20826;-71
2022/01/20 14:00:23;;;;;;;3.93;1.23;;;4.90;99.90;;;;;;5049946;28;20823;-70
2022/01/20 14:02:50;;;;;;;1.63;1.00;;;4.90;99.90;;;;;;5055183;28;20466;-70
2022/01/20 14:05:24;;;;;;;6.13;1.23;;;4.90;99.90;;;;;;5044202;28;20965;-69
2022/01/20 14:07:50;;;;;;;7.00;2.10;;;5.00;99.90;;;;;;5047183;28;20458;-71
2022/01/20 14:10:16;;;;;;;2.00;0.80;;;5.00;99.90;;;;;;5048926;28;20500;-69
2022/01/20 14:12:42;;;;;;;4.43;1.23;;;4.90;99.90;;;;;;5060774;28;20258;-71
2022/01/20 14:15:08;;;;;;;1.40;1.10;;;5.00;99.90;;;;;;5045703;28;20502;-70